VECC Airport Information

Runway Information
Runway 01L Length 7871 ft width 150 ft
Elevation 19 ft Threshold 0 ft Heading 6
Runway 19R Length 7871 ft Width 150 ft
Elevation 19 ft Threshold 0 ft Heading 186
Runway 01R Length 11900 ft width 150 ft
Elevation 20 ft Threshold 0 ft Heading 6
Runway 19L Length 11900 ft Width 150 ft
Elevation 19 ft Threshold 1390 ft Heading 186
Airport Frequencies
Type A/G Name KOLKATA RD Frequency 127.3 MHZ
Type ACC Name KOLKATA CO Frequency 119.3 MHZ
Type APP Name KOLKATA AP Frequency 127.9 MHZ
Type APP CONTRO Name KOLKATA CO Frequency 132.45 MHZ
Type ATIS Name ATIS Frequency 126.4 MHZ
Type GND Name KOLKATA GN Frequency 121.9 MHZ
Type RADAR Name Feeder ARE Frequency 127.3 MHZ
Type TWR Name KOLKATA TW Frequency 118.1 MHZ
Airport Navaids
Type VOR-DME Name Kolkata Frequency 112500 KHZ
Type NDB Name Kolkata Frequency 385 KHZ
Airport Weather Information & NOTAM
ADDS - METARS form results

(0357 UTC 15 November 2018)
Data provider http://aviationweather.gov/metar/data/
 
METAR text: VECC 150330Z 26004KT 1800 HZ NSC 27/21 Q1015 NOSIG
Conditions at: VECC (CALCUTTA/DUM DUM, IN) observed 0330 UTC 15 November 2018
Temperature: 27.0°C (81°F)
Dewpoint: 21.0°C (70°F) [RH = 70%]
Pressure (altimeter): 29.97 inches Hg (1015.0 mb)
Winds: from the W (260 degrees) at 5 MPH (4 knots; 2.1 m/s)
Visibility: 1.12 miles (1.80 km)
Ceiling: at least 12,000 feet AGL
Clouds: sky clear below 12,000 feet AGL
Weather: HZ  (haze)

METAR text: VECC 150300Z 00000KT 1800 BR NSC 25/21 Q1015 NOSIG
Conditions at: VECC (CALCUTTA/DUM DUM, IN) observed 0300 UTC 15 November 2018
Temperature: 25.0°C (77°F)
Dewpoint: 21.0°C (70°F) [RH = 79%]
Pressure (altimeter): 29.97 inches Hg (1015.0 mb)
Winds: calm
Visibility: 1.12 miles (1.80 km)
Ceiling: at least 12,000 feet AGL
Clouds: sky clear below 12,000 feet AGL
Weather: BR  (mist)

Forecast for: VECC (CALCUTTA/DUM DUM, IN)
Text: TAF VECC 150200Z 1503/1512 16005KT 2400 HZ NSC
Forecast period: 0300 to 0500 UTC 15 November 2018
Forecast type: FROM: standard forecast or significant change
Winds: from the SSE (160 degrees) at 6 MPH (5 knots; 2.6 m/s)
Visibility: 1.49 miles (2.40 km)
Ceiling: unknown
Clouds: missing
Weather: HZ  (haze)
Text: BECMG 1505/1507 3300 HZ
Forecast period: 0500 to 1200 UTC 15 November 2018
Forecast type: BECOMING: Conditions expected to become as follows by 0700 UTC 15 November 2018
Winds: from the SSE (160 degrees) at 6 MPH (5 knots; 2.6 m/s)
Visibility: 2.05 miles (3.30 km)
Ceiling: unknown
Clouds: missing
Weather: HZ  (haze)